Terminal Aerodrome Forecast
Issued by NWS Sterling, VA

Current Version | Previous Version | Graphics & Text | Print | Product List | Glossary On
Versions: 1 2 3 4 5 6 7 8 9 10 11 12 13 14 15 16 17 18 19 20 21 22 23 24 25 26 27
000
FTUS41 KLWX 291132
TAFDCA
TAF
KDCA 291132Z 2912/3012 33009KT P6SM SKC
     FM292000 28005KT P6SM FEW250
     FM292300 20004KT P6SM FEW250
     FM300300 18008KT P6SM SCT140
     FM300600 19009KT P6SM OVC090=

USA.gov is the U.S. government's official web portal to all federal, state and local government web resources and services.